Time;durP1;ratioP1;P1;durP2;ratioP2;P2;SDS_P1;SDS_P2;PMS_P1;PMS_P2;Temp;Humidity;BMP_temperature;BMP_pressure;BME280_temperature;BME280_humidity;BME280_pressure;Samples;Min_cycle;Max_cycle;Signal;HPM_P1;HPM_P2
2022/10/12 00:00:43;;;;;;;;;;;8.70;71.10;;;;;;5042453;28;19961;-76
2022/10/12 00:03:10;;;;;;;;;;;8.60;71.20;;;;;;5061855;28;19972;-75
2022/10/12 00:05:36;;;;;;;;;;;8.60;71.30;;;;;;5073579;28;19922;-75
2022/10/12 00:08:02;;;;;;;;;;;8.60;71.30;;;;;;5074424;28;19912;-77
2022/10/12 00:10:27;;;;;;;;;;;8.60;71.30;;;;;;5074926;28;20466;-76
2022/10/12 00:12:53;;;;;;;;;;;8.60;71.30;;;;;;5071491;28;19963;-75
2022/10/12 00:15:19;;;;;;;;;;;8.70;71.50;;;;;;5059631;28;19965;-75
2022/10/12 00:17:44;;;;;;;;;;;8.70;71.40;;;;;;5060376;28;19919;-76
2022/10/12 00:20:10;;;;;;;;;;;8.60;72.10;;;;;;5074732;28;19916;-75
2022/10/12 00:22:35;;;;;;;;;;;8.60;71.30;;;;;;5067772;28;19916;-76
2022/10/12 00:25:01;;;;;;;;;;;8.60;71.30;;;;;;5068728;28;19920;-76
2022/10/12 00:27:26;;;;;;;;;;;8.60;71.30;;;;;;5056730;28;19913;-75
2022/10/12 00:29:52;;;;;;;;;;;8.60;71.40;;;;;;5045974;28;20024;-76
2022/10/12 00:32:17;;;;;;;;;;;8.50;71.40;;;;;;5039482;28;19927;-75
2022/10/12 00:34:43;;;;;;;;;;;8.50;71.40;;;;;;5055256;28;20438;-76
2022/10/12 00:37:08;;;;;;;;;;;8.50;71.40;;;;;;5057243;28;19920;-74
2022/10/12 00:39:34;;;;;;;;;;;8.50;71.40;;;;;;5058424;28;19916;-76
2022/10/12 00:41:59;;;;;;;;;;;8.50;71.40;;;;;;5071807;28;19969;-75
2022/10/12 00:44:38;;;;;;;;;;;8.50;71.40;;;;;;5055201;28;19999;-76
2022/10/12 00:47:06;;;;;;;;;;;8.40;71.40;;;;;;5067365;28;20371;-75
2022/10/12 00:49:31;;;;;;;;;;;8.40;71.40;;;;;;5070329;28;19920;-74
2022/10/12 00:52:00;;;;;;;;;;;8.40;71.40;;;;;;5056652;28;19916;-75
2022/10/12 00:54:27;;;;;;;;;;;8.30;71.40;;;;;;5070573;28;20030;-75
2022/10/12 00:56:53;;;;;;;;;;;8.30;71.50;;;;;;5087839;28;19916;-76
2022/10/12 00:59:19;;;;;;;;;;;8.20;71.50;;;;;;5053766;28;20602;-75
2022/10/12 03:28:07;;;;;;;;;;;7.20;72.50;;;;;;5034610;28;20011;-76
2022/10/12 03:30:32;;;;;;;;;;;7.20;72.40;;;;;;5026590;28;20019;-76
2022/10/12 03:32:58;;;;;;;;;;;7.20;72.50;;;;;;5037782;28;19920;-75
2022/10/12 03:35:24;;;;;;;;;;;7.20;72.50;;;;;;5056637;28;20479;-76
2022/10/12 03:37:50;;;;;;;;;;;7.20;72.40;;;;;;5050494;28;19920;-75
2022/10/12 03:40:15;;;;;;;;;;;7.10;72.40;;;;;;5055422;28;20549;-75
2022/10/12 03:42:40;;;;;;;;;;;7.10;72.50;;;;;;5054269;28;19927;-74
2022/10/12 03:45:06;;;;;;;;;;;7.00;72.50;;;;;;5053998;28;19921;-75
2022/10/12 03:47:32;;;;;;;;;;;7.00;72.70;;;;;;5054514;28;20475;-75
2022/10/12 03:49:57;;;;;;;;;;;7.00;72.70;;;;;;5054285;28;20261;-75
2022/10/12 03:52:23;;;;;;;;;;;7.00;72.60;;;;;;5054017;28;19913;-75
2022/10/12 03:54:48;;;;;;;;;;;7.00;72.60;;;;;;5052886;28;19920;-76
2022/10/12 03:57:13;;;;;;;;;;;7.00;73.00;;;;;;5037238;28;20626;-76
2022/10/12 03:59:39;;;;;;;;;;;7.00;72.60;;;;;;5022603;28;19912;-76
2022/10/12 04:02:04;;;;;;;;;;;7.00;72.60;;;;;;5050840;28;19971;-77
2022/10/12 04:04:30;;;;;;;;;;;6.90;72.60;;;;;;5052762;28;19924;-76
2022/10/12 04:06:55;;;;;;;;;;;6.90;72.70;;;;;;5052511;28;20385;-76
2022/10/12 04:09:21;;;;;;;;;;;6.90;72.70;;;;;;5047983;28;19920;-75
2022/10/12 04:11:46;;;;;;;;;;;6.90;72.70;;;;;;4995178;28;19948;-76
2022/10/12 04:14:12;;;;;;;;;;;6.90;72.70;;;;;;5064807;28;19919;-75
2022/10/12 04:16:37;;;;;;;;;;;6.90;72.80;;;;;;5052412;28;20304;-76
2022/10/12 04:19:03;;;;;;;;;;;6.90;72.80;;;;;;5041654;28;19912;-76
2022/10/12 04:21:28;;;;;;;;;;;6.90;72.80;;;;;;5037133;28;19942;-76
2022/10/12 04:23:54;;;;;;;;;;;6.90;72.70;;;;;;5054795;28;20463;-74
2022/10/12 04:26:19;;;;;;;;;;;6.90;72.80;;;;;;5061486;28;19923;-77
2022/10/12 04:28:45;;;;;;;;;;;6.90;72.80;;;;;;5074025;28;19920;-76
2022/10/12 04:31:10;;;;;;;;;;;6.90;72.80;;;;;;5060792;28;19912;-76
2022/10/12 04:33:36;;;;;;;;;;;6.90;72.80;;;;;;5074442;28;20011;-75
2022/10/12 04:36:01;;;;;;;;;;;6.80;72.70;;;;;;5074904;28;19924;-76
2022/10/12 04:38:27;;;;;;;;;;;6.80;72.80;;;;;;5069312;28;19996;-75
2022/10/12 04:40:52;;;;;;;;;;;6.80;72.80;;;;;;5069570;28;19958;-75
2022/10/12 04:43:18;;;;;;;;;;;6.80;72.80;;;;;;5055779;28;19947;-75
2022/10/12 04:45:43;;;;;;;;;;;6.80;72.80;;;;;;5056723;28;19916;-76
2022/10/12 04:48:09;;;;;;;;;;;6.80;72.80;;;;;;5073289;28;19916;-76
2022/10/12 04:50:34;;;;;;;;;;;6.80;72.80;;;;;;5057075;28;19957;-76
2022/10/12 04:53:00;;;;;;;;;;;6.80;72.90;;;;;;5072195;28;19920;-76
2022/10/12 04:55:25;;;;;;;;;;;6.80;72.90;;;;;;5071609;28;19936;-76
2022/10/12 04:57:51;;;;;;;;;;;6.80;72.80;;;;;;5053373;28;19912;-76
2022/10/12 05:00:16;;;;;;;;;;;6.80;72.80;;;;;;5077251;28;19916;-75
2022/10/12 05:02:42;;;;;;;;;;;6.80;72.80;;;;;;5073106;28;19920;-75
2022/10/12 05:05:07;;;;;;;;;;;6.80;72.80;;;;;;5070581;28;19951;-76
2022/10/12 05:07:33;;;;;;;;;;;6.80;72.80;;;;;;5071270;28;19919;-76
2022/10/12 05:09:58;;;;;;;;;;;6.80;72.90;;;;;;5054352;28;19916;-76
2022/10/12 05:12:24;;;;;;;;;;;6.70;72.80;;;;;;5072988;28;20418;-75
2022/10/12 05:14:49;;;;;;;;;;;6.70;72.80;;;;;;5055271;28;19962;-76
2022/10/12 05:17:15;;;;;;;;;;;6.70;72.90;;;;;;5038639;28;19916;-75
2022/10/12 05:19:40;;;;;;;;;;;6.70;72.90;;;;;;5073851;28;20363;-75
2022/10/12 05:22:06;;;;;;;;;;;6.70;72.80;;;;;;5069801;28;19927;-75
2022/10/12 05:24:31;;;;;;;;;;;6.70;72.90;;;;;;5072622;28;19912;-76
2022/10/12 05:26:57;;;;;;;;;;;6.70;72.90;;;;;;5055638;28;20388;-76
2022/10/12 05:29:22;;;;;;;;;;;6.70;72.90;;;;;;5053176;28;19921;-76
2022/10/12 05:31:48;;;;;;;;;;;6.70;72.90;;;;;;5070059;28;20006;-76
2022/10/12 05:34:13;;;;;;;;;;;6.70;73.00;;;;;;5070169;28;19924;-76
2022/10/12 05:36:39;;;;;;;;;;;6.60;72.90;;;;;;5056218;28;19923;-75
2022/10/12 05:39:04;;;;;;;;;;;6.60;72.90;;;;;;5089211;28;20441;-75
2022/10/12 05:41:30;;;;;;;;;;;6.60;72.90;;;;;;5074009;28;19917;-75
2022/10/12 05:43:55;;;;;;;;;;;6.60;73.00;;;;;;5051734;28;20459;-76
2022/10/12 05:46:22;;;;;;;;;;;6.60;73.00;;;;;;5054324;28;19920;-75
2022/10/12 05:48:47;;;;;;;;;;;6.60;73.10;;;;;;5040843;28;19916;-75
2022/10/12 05:51:12;;;;;;;;;;;6.60;73.10;;;;;;5074012;28;20269;-76
2022/10/12 05:53:38;;;;;;;;;;;6.60;73.10;;;;;;5074118;28;19912;-76
2022/10/12 05:56:04;;;;;;;;;;;6.60;73.10;;;;;;5069429;28;20341;-76
2022/10/12 05:58:29;;;;;;;;;;;6.60;73.10;;;;;;5072954;28;19916;-75
2022/10/12 06:00:55;;;;;;;;;;;6.60;73.10;;;;;;5087343;28;20480;-76
2022/10/12 06:03:20;;;;;;;;;;;6.70;73.10;;;;;;5055174;28;19920;-76
2022/10/12 06:05:46;;;;;;;;;;;6.70;73.10;;;;;;5068611;28;19912;-75
2022/10/12 06:08:11;;;;;;;;;;;6.70;73.10;;;;;;5071604;28;20305;-74
2022/10/12 06:10:39;;;;;;;;;;;6.70;73.10;;;;;;5068553;28;19999;-76
2022/10/12 06:13:04;;;;;;;;;;;6.70;73.10;;;;;;5088375;28;19978;-75
2022/10/12 06:15:30;;;;;;;;;;;6.80;73.10;;;;;;5071871;28;20345;-75
2022/10/12 06:17:55;;;;;;;;;;;6.80;73.10;;;;;;5083671;28;19913;-75
2022/10/12 06:20:21;;;;;;;;;;;6.80;73.10;;;;;;5075126;28;20018;-75
2022/10/12 06:22:46;;;;;;;;;;;6.80;73.00;;;;;;5055745;28;20046;-75
2022/10/12 06:25:12;;;;;;;;;;;6.80;73.00;;;;;;5073885;28;19943;-76
2022/10/12 06:27:37;;;;;;;;;;;6.90;73.10;;;;;;5077317;28;20052;-76
2022/10/12 06:30:03;;;;;;;;;;;6.90;73.10;;;;;;5076980;28;20721;-74
2022/10/12 06:32:28;;;;;;;;;;;6.80;72.90;;;;;;5059633;28;19920;-76
2022/10/12 06:34:54;;;;;;;;;;;6.90;73.10;;;;;;5058708;28;19920;-75
2022/10/12 06:37:19;;;;;;;;;;;6.90;73.10;;;;;;5064723;28;19912;-75
2022/10/12 06:39:45;;;;;;;;;;;6.90;73.10;;;;;;5075374;28;19912;-75
2022/10/12 06:42:11;;;;;;;;;;;6.90;73.10;;;;;;5074645;28;19916;-75
2022/10/12 06:44:36;;;;;;;;;;;6.90;73.10;;;;;;5075490;28;19979;-75
2022/10/12 06:47:02;;;;;;;;;;;6.90;73.10;;;;;;5074633;28;19912;-75
2022/10/12 06:49:27;;;;;;;;;;;7.00;73.20;;;;;;5081416;28;19912;-75
2022/10/12 06:51:53;;;;;;;;;;;7.00;73.00;;;;;;5078224;28;20852;-76
2022/10/12 06:54:18;;;;;;;;;;;7.00;73.00;;;;;;5060647;28;20013;-76
2022/10/12 06:56:44;;;;;;;;;;;7.10;73.10;;;;;;5074452;28;20319;-75
2022/10/12 06:59:12;;;;;;;;;;;7.10;73.10;;;;;;5073253;28;19973;-75
2022/10/12 07:01:38;;;;;;;;;;;7.20;73.10;;;;;;5073998;28;19916;-75
2022/10/12 07:04:04;;;;;;;;;;;7.30;73.10;;;;;;5081563;27;19939;-76
2022/10/12 07:06:29;;;;;;;;;;;7.30;73.00;;;;;;5063024;28;19978;-76
2022/10/12 07:08:55;;;;;;;;;;;7.40;73.10;;;;;;5058441;28;20470;-75
2022/10/12 07:11:20;;;;;;;;;;;7.50;73.80;;;;;;5059719;28;20380;-75
2022/10/12 07:13:46;;;;;;;;;;;7.60;72.90;;;;;;5073977;28;19920;-76
2022/10/12 07:16:11;;;;;;;;;;;7.70;72.90;;;;;;5073132;28;19939;-75
2022/10/12 07:18:37;;;;;;;;;;;7.70;72.80;;;;;;5059741;28;19999;-76
2022/10/12 07:21:03;;;;;;;;;;;7.90;72.80;;;;;;5071010;28;20611;-75
2022/10/12 07:23:29;;;;;;;;;;;8.00;72.80;;;;;;5065837;28;19931;-75
2022/10/12 07:25:55;;;;;;;;;;;8.10;73.50;;;;;;5055831;28;20404;-77
2022/10/12 07:28:21;;;;;;;;;;;8.20;72.60;;;;;;5053541;28;19920;-76
2022/10/12 07:30:46;;;;;;;;;;;8.30;72.60;;;;;;5076271;28;19920;-76
2022/10/12 07:33:11;;;;;;;;;;;8.50;72.50;;;;;;5046581;28;19919;-75
2022/10/12 07:35:37;;;;;;;;;;;8.60;72.50;;;;;;5059670;28;20304;-75
2022/10/12 07:38:03;;;;;;;;;;;8.70;72.40;;;;;;5054002;28;20039;-75
2022/10/12 07:40:28;;;;;;;;;;;8.80;72.30;;;;;;5019929;28;20051;-76
2022/10/12 07:42:54;;;;;;;;;;;8.90;72.20;;;;;;5052596;28;19921;-76
2022/10/12 07:45:19;;;;;;;;;;;9.00;72.20;;;;;;5039935;28;20479;-75
2022/10/12 07:47:45;;;;;;;;;;;9.10;72.30;;;;;;5055183;28;19920;-76
2022/10/12 07:50:11;;;;;;;;;;;9.30;72.10;;;;;;5052916;28;19920;-75
2022/10/12 07:52:36;;;;;;;;;;;9.30;71.90;;;;;;5070942;28;19912;-75
2022/10/12 07:55:02;;;;;;;;;;;9.40;71.80;;;;;;5051638;28;20384;-75
2022/10/12 07:57:27;;;;;;;;;;;9.50;71.80;;;;;;5061815;28;19912;-75
2022/10/12 07:59:53;;;;;;;;;;;9.60;71.70;;;;;;5052014;28;19916;-75
2022/10/12 08:02:18;;;;;;;;;;;9.70;71.70;;;;;;5048656;28;20280;-75
2022/10/12 08:04:44;;;;;;;;;;;9.80;71.60;;;;;;5037153;28;20805;-76
2022/10/12 08:07:09;;;;;;;;;;;10.00;71.60;;;;;;5051607;28;20490;-75
2022/10/12 08:09:35;;;;;;;;;;;10.10;71.50;;;;;;5053277;28;19912;-76
2022/10/12 08:12:01;;;;;;;;;;;10.20;71.40;;;;;;5051973;28;19974;-76
2022/10/12 08:14:26;;;;;;;;;;;10.30;71.30;;;;;;5051872;28;19919;-76
2022/10/12 08:16:52;;;;;;;;;;;10.40;71.20;;;;;;5053667;28;19912;-76
2022/10/12 08:19:17;;;;;;;;;;;10.50;71.20;;;;;;5050578;28;20368;-75
2022/10/12 08:22:02;;;;;;;;;;;10.70;71.20;;;;;;5055851;28;20023;-75
2022/10/12 08:24:28;;;;;;;;;;;10.90;71.10;;;;;;5034702;28;19919;-76
2022/10/12 08:26:53;;;;;;;;;;;11.00;71.00;;;;;;5062092;28;19924;-75
2022/10/12 08:29:19;;;;;;;;;;;11.20;70.90;;;;;;5075573;28;20519;-76
2022/10/12 08:31:44;;;;;;;;;;;11.30;70.70;;;;;;5077049;28;20014;-76
2022/10/12 08:34:10;;;;;;;;;;;11.50;70.70;;;;;;5060239;28;19916;-77
2022/10/12 08:36:36;;;;;;;;;;;11.70;70.70;;;;;;5058299;28;19923;-76
2022/10/12 08:39:01;;;;;;;;;;;11.80;70.40;;;;;;5076563;28;19924;-76
2022/10/12 08:41:39;;;;;;;;;;;11.90;70.30;;;;;;5073981;28;19915;-77
2022/10/12 08:44:20;;;;;;;;;;;12.10;70.20;;;;;;5074446;28;19998;-76
2022/10/12 08:46:45;;;;;;;;;;;12.30;70.20;;;;;;5073783;28;19939;-76
2022/10/12 08:49:11;;;;;;;;;;;12.40;70.00;;;;;;5060987;28;19944;-76
2022/10/12 08:51:43;;;;;;;;;;;12.50;69.80;;;;;;5077828;28;19920;-76
2022/10/12 08:54:12;;;;;;;;;;;12.70;69.70;;;;;;5079851;27;19920;-77
2022/10/12 08:56:40;;;;;;;;;;;12.80;69.70;;;;;;5061762;28;19981;-77
2022/10/12 08:59:08;;;;;;;;;;;12.90;69.60;;;;;;5077775;28;20463;-76
2022/10/12 09:01:42;;;;;;;;;;;13.00;69.30;;;;;;5076231;28;19916;-77
2022/10/12 09:04:11;;;;;;;;;;;13.10;69.20;;;;;;5079388;28;19916;-76
2022/10/12 09:06:36;;;;;;;;;;;13.10;69.20;;;;;;5073082;28;19919;-77
2022/10/12 09:09:04;;;;;;;;;;;13.10;69.10;;;;;;5075963;28;19916;-76
2022/10/12 09:11:29;;;;;;;;;;;13.30;69.10;;;;;;5059180;28;19919;-76
2022/10/12 09:13:58;;;;;;;;;;;13.40;69.20;;;;;;5060031;28;19919;-76
2022/10/12 09:16:28;;;;;;;;;;;13.60;69.20;;;;;;5067778;28;19924;-76
2022/10/12 09:18:57;;;;;;;;;;;13.70;69.00;;;;;;5052340;28;19983;-76
2022/10/12 09:21:23;;;;;;;;;;;14.00;69.00;;;;;;5068062;28;19932;-76
2022/10/12 09:23:49;;;;;;;;;;;14.20;68.80;;;;;;5039431;28;19928;-76
2022/10/12 09:26:17;;;;;;;;;;;14.40;68.60;;;;;;5050919;28;19924;-76
2022/10/12 09:28:55;;;;;;;;;;;14.60;68.40;;;;;;5076527;28;19924;-76
2022/10/12 09:31:39;;;;;;;;;;;14.70;68.20;;;;;;5080990;28;19989;-76
2022/10/12 09:34:05;;;;;;;;;;;14.90;68.10;;;;;;5064194;28;19951;-76
2022/10/12 09:36:35;;;;;;;;;;;15.20;68.10;;;;;;5090237;28;19956;-76
2022/10/12 09:39:04;;;;;;;;;;;15.30;67.90;;;;;;5038054;28;19959;-77
2022/10/12 09:41:33;;;;;;;;;;;15.60;67.70;;;;;;5087632;28;19920;-77
2022/10/12 09:43:59;;;;;;;;;;;15.80;68.40;;;;;;5069927;28;20453;-77
2022/10/12 09:46:27;;;;;;;;;;;16.00;67.40;;;;;;5056274;28;19920;-76
2022/10/12 09:48:56;;;;;;;;;;;16.20;67.20;;;;;;5056527;28;19916;-76
2022/10/12 09:51:22;;;;;;;;;;;16.40;67.00;;;;;;5072254;28;19999;-76
2022/10/12 09:53:48;;;;;;;;;;;16.50;66.70;;;;;;5055954;28;20003;-76
2022/10/12 09:56:23;;;;;;;;;;;16.60;66.70;;;;;;5073284;28;19920;-76
2022/10/12 09:58:49;;;;;;;;;;;16.80;66.50;;;;;;5071435;28;19919;-76
2022/10/12 10:01:17;;;;;;;;;;;16.90;66.40;;;;;;5058421;28;20388;-77
2022/10/12 10:03:43;;;;;;;;;;;17.00;66.30;;;;;;5071553;28;20377;-75
2022/10/12 10:06:09;;;;;;;;;;;17.20;66.30;;;;;;5075695;28;19916;-75
2022/10/12 10:08:41;;;;;;;;;;;17.40;66.20;;;;;;5075776;28;20509;-77
2022/10/12 10:11:12;;;;;;;;;;;17.60;66.00;;;;;;5062170;28;19920;-76
2022/10/12 10:13:37;;;;;;;;;;;17.80;65.80;;;;;;5057621;28;19912;-77
2022/10/12 10:16:07;;;;;;;;;;;18.00;65.60;;;;;;5057356;28;20587;-76
2022/10/12 10:18:33;;;;;;;;;;;18.30;65.50;;;;;;5073305;28;19912;-77
2022/10/12 10:20:59;;;;;;;;;;;18.50;65.40;;;;;;5053977;28;19948;-76
2022/10/12 10:23:25;;;;;;;;;;;18.60;65.20;;;;;;5072586;28;19958;-77
2022/10/12 10:25:55;;;;;;;;;;;18.70;64.90;;;;;;5054450;28;19912;-76
2022/10/12 10:28:22;;;;;;;;;;;18.90;64.80;;;;;;5046971;28;20046;-77
2022/10/12 10:30:58;;;;;;;;;;;19.00;64.60;;;;;;5054809;28;19957;-76
2022/10/12 10:33:24;;;;;;;;;;;19.10;64.50;;;;;;5073218;28;19916;-77
2022/10/12 10:35:53;;;;;;;;;;;19.20;64.50;;;;;;5070793;28;20572;-76
2022/10/12 10:38:24;;;;;;;;;;;19.30;64.30;;;;;;5085669;28;20005;-77
2022/10/12 10:40:53;;;;;;;;;;;19.50;64.20;;;;;;5088096;28;19912;-76
2022/10/12 10:43:20;;;;;;;;;;;19.60;64.10;;;;;;5056457;28;19920;-77
2022/10/12 10:45:49;;;;;;;;;;;19.80;64.00;;;;;;5072808;28;19912;-76
2022/10/12 10:48:15;;;;;;;;;;;20.00;63.90;;;;;;5069112;28;21352;-77
2022/10/12 10:50:41;;;;;;;;;;;20.20;63.60;;;;;;5072397;28;19912;-75
2022/10/12 10:53:13;;;;;;;;;;;20.40;63.50;;;;;;5041983;28;19947;-77
2022/10/12 10:55:57;;;;;;;;;;;20.50;63.30;;;;;;5056055;28;19920;-77
2022/10/12 10:58:33;;;;;;;;;;;20.70;63.20;;;;;;5068904;28;19927;-77
2022/10/12 11:01:19;;;;;;;;;;;20.90;63.00;;;;;;5072102;28;20002;-76
2022/10/12 11:03:47;;;;;;;;;;;21.10;62.80;;;;;;5071834;28;19924;-77
2022/10/12 11:06:12;;;;;;;;;;;21.30;62.60;;;;;;5073438;28;19989;-77
2022/10/12 11:08:38;;;;;;;;;;;21.50;62.50;;;;;;5070725;28;20562;-77
2022/10/12 11:11:13;;;;;;;;;;;21.60;62.30;;;;;;5057957;28;19922;-77
2022/10/12 11:13:43;;;;;;;;;;;21.80;62.20;;;;;;5075448;28;20399;-77
2022/10/12 11:16:13;;;;;;;;;;;21.90;62.00;;;;;;5076347;28;19986;-77
2022/10/12 11:18:45;;;;;;;;;;;22.00;61.90;;;;;;5059638;28;20285;-77
2022/10/12 11:21:12;;;;;;;;;;;22.10;61.80;;;;;;5057504;28;19919;-77
2022/10/12 11:23:54;;;;;;;;;;;22.10;61.70;;;;;;5072552;28;19944;-77
2022/10/12 11:26:23;;;;;;;;;;;22.10;61.70;;;;;;5058836;28;19916;-78
2022/10/12 11:28:48;;;;;;;;;;;22.10;61.70;;;;;;5075033;28;19923;-77
2022/10/12 11:31:16;;;;;;;;;;;22.10;61.90;;;;;;5078209;28;20303;-78
2022/10/12 11:33:42;;;;;;;;;;;22.20;61.80;;;;;;5075627;28;19920;-78
2022/10/12 11:36:09;;;;;;;;;;;22.30;61.70;;;;;;5061723;28;20364;-77
2022/10/12 11:38:36;;;;;;;;;;;22.40;61.70;;;;;;5074462;28;19915;-77
2022/10/12 11:41:08;;;;;;;;;;;22.50;61.50;;;;;;5075048;28;19920;-77
2022/10/12 11:43:35;;;;;;;;;;;22.50;61.50;;;;;;5075518;28;19920;-78
2022/10/12 11:46:02;;;;;;;;;;;22.70;61.40;;;;;;5073568;28;19927;-77
2022/10/12 11:48:30;;;;;;;;;;;23.00;61.30;;;;;;5061040;28;19948;-78
2022/10/12 11:50:56;;;;;;;;;;;23.20;61.00;;;;;;5077757;28;19916;-77
2022/10/12 11:53:33;;;;;;;;;;;23.40;60.80;;;;;;5076426;28;19916;-76
2022/10/12 11:56:05;;;;;;;;;;;23.60;60.50;;;;;;5056862;28;20502;-78
2022/10/12 11:58:31;;;;;;;;;;;23.70;60.40;;;;;;5060120;28;19912;-77
2022/10/12 12:01:19;;;;;;;;;;;23.70;60.20;;;;;;5059570;28;19913;-77
2022/10/12 12:03:45;;;;;;;;;;;23.80;60.10;;;;;;5074759;28;19916;-77
2022/10/12 12:06:29;;;;;;;;;;;23.80;60.00;;;;;;5075809;28;19938;-76
2022/10/12 12:08:54;;;;;;;;;;;23.80;60.10;;;;;;5076990;28;19916;-77
2022/10/12 12:11:21;;;;;;;;;;;23.80;60.20;;;;;;5074355;28;19913;-77
2022/10/12 12:13:46;;;;;;;;;;;23.90;60.20;;;;;;5059832;28;19912;-77
2022/10/12 12:16:12;;;;;;;;;;;23.90;60.00;;;;;;5075252;28;19916;-77
2022/10/12 12:18:56;;;;;;;;;;;24.00;60.10;;;;;;5074808;28;19995;-77
2022/10/12 12:21:22;;;;;;;;;;;24.20;59.90;;;;;;5076204;28;19920;-77
2022/10/12 12:23:53;;;;;;;;;;;24.40;59.70;;;;;;5059477;28;19927;-77
2022/10/12 12:26:20;;;;;;;;;;;24.60;59.60;;;;;;5056129;28;19927;-77
2022/10/12 12:28:50;;;;;;;;;;;24.70;59.30;;;;;;5076407;28;22055;-77
2022/10/12 12:31:16;;;;;;;;;;;24.60;59.40;;;;;;5056508;28;19912;-78
2022/10/12 12:33:44;;;;;;;;;;;24.50;59.50;;;;;;5074871;28;19920;-77
2022/10/12 12:36:12;;;;;;;;;;;24.50;59.60;;;;;;5064179;28;20425;-77
2022/10/12 12:38:45;;;;;;;;;;;24.50;59.50;;;;;;5059363;28;19965;-77
2022/10/12 12:41:11;;;;;;;;;;;24.60;59.50;;;;;;5043358;28;19968;-78
2022/10/12 12:43:38;;;;;;;;;;;24.70;60.20;;;;;;5058746;28;19916;-77
2022/10/12 12:46:07;;;;;;;;;;;24.90;59.40;;;;;;5057291;28;19948;-77
2022/10/12 12:48:42;;;;;;;;;;;25.10;59.20;;;;;;5074454;28;19920;-77
2022/10/12 12:51:14;;;;;;;;;;;25.30;59.00;;;;;;5079061;28;19918;-78
2022/10/12 12:53:42;;;;;;;;;;;25.40;59.40;;;;;;5072637;28;19912;-77
2022/10/12 12:56:14;;;;;;;;;;;25.50;58.80;;;;;;5072297;28;20357;-77
2022/10/12 12:58:43;;;;;;;;;;;25.60;58.70;;;;;;5076670;28;19918;-78
2022/10/12 13:01:18;;;;;;;;;;;25.50;58.60;;;;;;5046387;28;19916;-76
2022/10/12 13:03:47;;;;;;;;;;;25.50;58.80;;;;;;5045749;28;19924;-78
2022/10/12 13:06:22;;;;;;;;;;;25.60;58.70;;;;;;5059244;28;19921;-77
2022/10/12 13:09:06;;;;;;;;;;;25.70;58.70;;;;;;5075268;28;19938;-76
2022/10/12 13:11:35;;;;;;;;;;;25.70;58.60;;;;;;5075713;28;19920;-76
2022/10/12 13:14:19;;;;;;;;;;;25.80;58.60;;;;;;5063738;28;19965;-76
2022/10/12 13:17:05;;;;;;;;;;;25.90;58.60;;;;;;5069701;28;19924;-77
2022/10/12 13:19:31;;;;;;;;;;;25.90;58.40;;;;;;5075345;28;20636;-77
2022/10/12 13:21:57;;;;;;;;;;;25.90;58.40;;;;;;5080826;28;19918;-75
2022/10/12 13:24:23;;;;;;;;;;;25.80;58.40;;;;;;5062479;28;19921;-76
2022/10/12 13:26:49;;;;;;;;;;;25.70;58.50;;;;;;5072718;28;20395;-77
2022/10/12 13:29:22;;;;;;;;;;;25.60;58.50;;;;;;5071519;28;19946;-77
2022/10/12 13:31:47;;;;;;;;;;;25.60;58.70;;;;;;5055939;28;19916;-77
2022/10/12 13:34:19;;;;;;;;;;;25.60;58.70;;;;;;5060250;28;19998;-77
2022/10/12 13:36:54;;;;;;;;;;;25.60;58.70;;;;;;5072490;28;19916;-77
2022/10/12 13:39:20;;;;;;;;;;;25.70;58.60;;;;;;5054672;28;20360;-76
2022/10/12 13:41:46;;;;;;;;;;;25.70;58.50;;;;;;5071411;28;19920;-77
2022/10/12 13:44:18;;;;;;;;;;;25.70;58.60;;;;;;5073478;28;19942;-77
2022/10/12 13:46:48;;;;;;;;;;;25.60;58.50;;;;;;5053816;28;19962;-76
2022/10/12 13:49:14;;;;;;;;;;;25.40;58.50;;;;;;5075528;28;19912;-77
2022/10/12 13:51:40;;;;;;;;;;;25.30;58.60;;;;;;5070967;28;19912;-77
2022/10/12 13:54:16;;;;;;;;;;;25.10;58.70;;;;;;5060101;28;19912;-77
2022/10/12 13:56:41;;;;;;;;;;;25.00;58.80;;;;;;5086613;28;19912;-76
2022/10/12 13:59:14;;;;;;;;;;;25.00;58.90;;;;;;5068679;28;19917;-77
2022/10/12 14:01:53;;;;;;;;;;;24.90;59.00;;;;;;5053519;28;20475;-77
2022/10/12 14:04:19;;;;;;;;;;;24.70;58.90;;;;;;5071459;28;19928;-76
2022/10/12 14:06:53;;;;;;;;;;;24.50;59.30;;;;;;5069193;28;19935;-77
2022/10/12 14:09:20;;;;;;;;;;;24.50;59.40;;;;;;5041978;28;20330;-76
2022/10/12 14:11:45;;;;;;;;;;;24.50;59.40;;;;;;5086854;28;19935;-77
2022/10/12 14:14:14;;;;;;;;;;;24.50;59.20;;;;;;5070324;28;20531;-76
2022/10/12 14:16:39;;;;;;;;;;;24.50;59.20;;;;;;5069170;28;19981;-77
2022/10/12 14:19:29;;;;;;;;;;;24.40;59.20;;;;;;5070547;28;19920;-78
2022/10/12 14:21:55;;;;;;;;;;;24.40;59.10;;;;;;5079906;28;20287;-77
2022/10/12 14:24:20;;;;;;;;;;;24.40;59.10;;;;;;5053210;28;19916;-77
2022/10/12 14:26:51;;;;;;;;;;;24.30;59.00;;;;;;5070540;28;19928;-78
2022/10/12 14:29:34;;;;;;;;;;;24.30;59.10;;;;;;5055952;28;19920;-77
2022/10/12 14:32:04;;;;;;;;;;;24.10;59.00;;;;;;5070839;28;19986;-77
2022/10/12 14:34:33;;;;;;;;;;;24.00;59.10;;;;;;5059544;28;19940;-77
2022/10/12 14:37:08;;;;;;;;;;;23.80;59.30;;;;;;5053819;28;19919;-77
2022/10/12 14:39:33;;;;;;;;;;;23.70;59.40;;;;;;5072508;28;19970;-77
2022/10/12 14:42:02;;;;;;;;;;;23.50;59.60;;;;;;5074370;28;20395;-78
2022/10/12 14:44:28;;;;;;;;;;;23.40;59.80;;;;;;5071752;28;19927;-78
2022/10/12 14:46:53;;;;;;;;;;;23.30;59.80;;;;;;5060466;28;19916;-77
2022/10/12 14:49:26;;;;;;;;;;;23.30;59.90;;;;;;5077000;28;20015;-77
2022/10/12 14:51:52;;;;;;;;;;;23.30;59.90;;;;;;5058773;28;19927;-77
2022/10/12 14:54:17;;;;;;;;;;;23.30;59.90;;;;;;5062312;28;19917;-77
2022/10/12 14:56:43;;;;;;;;;;;23.20;59.80;;;;;;5072535;28;19965;-77
2022/10/12 14:59:08;;;;;;;;;;;23.20;59.80;;;;;;5071636;28;19920;-78
2022/10/12 15:01:34;;;;;;;;;;;23.20;59.90;;;;;;5076132;28;20555;-76
2022/10/12 15:03:59;;;;;;;;;;;23.20;59.80;;;;;;5076741;28;20022;-76
2022/10/12 15:06:25;;;;;;;;;;;23.10;59.80;;;;;;5076640;28;19918;-77
2022/10/12 15:08:51;;;;;;;;;;;23.10;59.90;;;;;;5071047;28;19912;-77
2022/10/12 15:11:17;;;;;;;;;;;23.10;59.90;;;;;;5073619;28;20006;-77
2022/10/12 15:13:42;;;;;;;;;;;23.00;60.00;;;;;;5063255;28;20340;-75
2022/10/12 15:16:14;;;;;;;;;;;22.90;60.00;;;;;;5076112;28;19911;-77
2022/10/12 15:18:39;;;;;;;;;;;22.90;60.00;;;;;;5063514;28;19976;-77
2022/10/12 15:21:05;;;;;;;;;;;22.90;60.00;;;;;;5079363;28;19987;-77
2022/10/12 15:23:31;;;;;;;;;;;22.80;60.80;;;;;;5060908;28;20275;-76
2022/10/12 15:25:59;;;;;;;;;;;22.80;60.00;;;;;;5073631;28;20327;-76
2022/10/12 15:28:26;;;;;;;;;;;22.80;60.00;;;;;;5060067;28;20029;-77
2022/10/12 15:30:52;;;;;;;;;;;22.80;60.80;;;;;;5066231;28;19913;-76
2022/10/12 15:33:17;;;;;;;;;;;22.70;60.00;;;;;;5048421;28;19923;-76
2022/10/12 15:35:43;;;;;;;;;;;22.70;60.00;;;;;;5063650;28;19919;-76
2022/10/12 15:38:09;;;;;;;;;;;22.60;60.00;;;;;;5076760;28;19926;-77
2022/10/12 15:40:34;;;;;;;;;;;22.50;60.00;;;;;;5076886;28;19942;-77
2022/10/12 15:43:00;;;;;;;;;;;22.40;60.10;;;;;;5059673;28;20433;-77
2022/10/12 15:45:35;;;;;;;;;;;22.30;60.20;;;;;;5074034;28;19912;-75
2022/10/12 15:48:01;;;;;;;;;;;22.30;60.40;;;;;;5055010;28;19912;-76
2022/10/12 15:50:27;;;;;;;;;;;22.20;61.20;;;;;;5073023;28;19920;-75
2022/10/12 15:52:53;;;;;;;;;;;22.20;60.50;;;;;;5071691;28;19927;-75
2022/10/12 15:55:20;;;;;;;;;;;22.10;60.50;;;;;;5075130;28;19915;-75
2022/10/12 15:57:46;;;;;;;;;;;22.00;60.40;;;;;;5074909;28;20288;-76
2022/10/12 16:00:18;;;;;;;;;;;21.90;60.50;;;;;;5073678;28;19932;-75
2022/10/12 16:02:43;;;;;;;;;;;21.80;60.60;;;;;;5072563;28;19916;-77
2022/10/12 16:05:16;;;;;;;;;;;21.80;60.70;;;;;;5058887;28;19927;-75
2022/10/12 16:07:41;;;;;;;;;;;21.60;60.60;;;;;;5063419;28;19912;-75
2022/10/12 16:10:12;;;;;;;;;;;21.50;60.80;;;;;;5077857;28;19916;-76
2022/10/12 16:12:38;;;;;;;;;;;21.40;61.00;;;;;;5062299;28;19927;-76
2022/10/12 16:15:04;;;;;;;;;;;21.40;61.10;;;;;;5048256;28;20260;-76
2022/10/12 16:17:30;;;;;;;;;;;21.30;61.10;;;;;;5061749;28;20385;-76
2022/10/12 16:19:55;;;;;;;;;;;21.10;61.10;;;;;;5075515;28;20320;-77
2022/10/12 16:22:21;;;;;;;;;;;20.90;61.10;;;;;;5073257;28;19942;-75
2022/10/12 16:24:46;;;;;;;;;;;20.80;61.30;;;;;;5073359;28;19920;-74
2022/10/12 16:27:12;;;;;;;;;;;20.70;61.40;;;;;;5055156;28;20005;-76
2022/10/12 16:29:37;;;;;;;;;;;20.60;61.50;;;;;;5058572;28;19923;-77
2022/10/12 16:32:03;;;;;;;;;;;20.50;61.60;;;;;;5072161;28;19967;-76
2022/10/12 16:34:29;;;;;;;;;;;20.40;61.70;;;;;;5068178;28;19924;-76
2022/10/12 16:36:54;;;;;;;;;;;20.20;61.80;;;;;;5066952;28;19932;-77
2022/10/12 16:39:20;;;;;;;;;;;20.10;61.90;;;;;;5067939;28;20376;-76
2022/10/12 16:41:45;;;;;;;;;;;20.00;62.00;;;;;;5054508;28;20402;-77
2022/10/12 16:44:11;;;;;;;;;;;19.90;62.00;;;;;;5056739;28;19916;-76
2022/10/12 16:46:37;;;;;;;;;;;19.70;62.20;;;;;;5071812;28;20411;-76
2022/10/12 16:49:03;;;;;;;;;;;19.60;62.40;;;;;;5057183;28;19958;-76